sensor_id;sensor_type;location;lat;lon;timestamp;temperature;humidity
28845;DHT22;15976;47.938;7.758;2023-03-13T00:01:56;13.90;58.90
28845;DHT22;15976;47.938;7.758;2023-03-13T00:04:23;13.90;58.90
28845;DHT22;15976;47.938;7.758;2023-03-13T00:06:50;13.90;58.90
28845;DHT22;15976;47.938;7.758;2023-03-13T00:09:17;13.90;58.90
28845;DHT22;15976;47.938;7.758;2023-03-13T00:11:45;13.90;58.90
28845;DHT22;15976;47.938;7.758;2023-03-13T00:14:12;13.90;58.80
28845;DHT22;15976;47.938;7.758;2023-03-13T00:16:40;13.90;58.80
28845;DHT22;15976;47.938;7.758;2023-03-13T00:19:07;13.90;58.80
28845;DHT22;15976;47.938;7.758;2023-03-13T00:21:35;13.90;58.80
28845;DHT22;15976;47.938;7.758;2023-03-13T00:24:08;13.90;58.90
28845;DHT22;15976;47.938;7.758;2023-03-13T00:26:36;13.90;58.90
28845;DHT22;15976;47.938;7.758;2023-03-13T00:29:03;13.90;58.90
28845;DHT22;15976;47.938;7.758;2023-03-13T00:31:30;13.90;58.90
28845;DHT22;15976;47.938;7.758;2023-03-13T00:34:00;13.90;58.90
28845;DHT22;15976;47.938;7.758;2023-03-13T00:36:30;13.90;58.80
28845;DHT22;15976;47.938;7.758;2023-03-13T00:38:58;14.00;58.80
28845;DHT22;15976;47.938;7.758;2023-03-13T00:41:28;14.00;58.80
28845;DHT22;15976;47.938;7.758;2023-03-13T00:43:56;14.00;58.80
28845;DHT22;15976;47.938;7.758;2023-03-13T00:46:25;13.90;58.80
28845;DHT22;15976;47.938;7.758;2023-03-13T00:48:52;13.90;58.80
28845;DHT22;15976;47.938;7.758;2023-03-13T00:51:20;14.00;58.80
28845;DHT22;15976;47.938;7.758;2023-03-13T00:53:49;14.00;58.80
28845;DHT22;15976;47.938;7.758;2023-03-13T00:56:18;14.10;58.80
28845;DHT22;15976;47.938;7.758;2023-03-13T00:58:46;14.10;58.70
28845;DHT22;15976;47.938;7.758;2023-03-13T01:01:23;14.10;58.70
28845;DHT22;15976;47.938;7.758;2023-03-13T01:03:56;14.10;58.60
28845;DHT22;15976;47.938;7.758;2023-03-13T01:06:26;14.10;58.70
28845;DHT22;15976;47.938;7.758;2023-03-13T01:08:56;14.10;58.70
28845;DHT22;15976;47.938;7.758;2023-03-13T01:11:30;14.10;58.70
28845;DHT22;15976;47.938;7.758;2023-03-13T01:14:02;14.20;58.80
28845;DHT22;15976;47.938;7.758;2023-03-13T01:16:34;14.20;58.70
28845;DHT22;15976;47.938;7.758;2023-03-13T01:19:13;14.20;59.10
28845;DHT22;15976;47.938;7.758;2023-03-13T01:21:42;14.10;58.60
28845;DHT22;15976;47.938;7.758;2023-03-13T01:24:09;14.10;59.00
28845;DHT22;15976;47.938;7.758;2023-03-13T01:26:37;14.00;59.60
28845;DHT22;15976;47.938;7.758;2023-03-13T01:29:04;13.80;60.60
28845;DHT22;15976;47.938;7.758;2023-03-13T01:31:33;13.60;61.60
28845;DHT22;15976;47.938;7.758;2023-03-13T01:34:03;13.60;62.60
28845;DHT22;15976;47.938;7.758;2023-03-13T01:36:30;13.50;63.90
28845;DHT22;15976;47.938;7.758;2023-03-13T01:38:59;13.50;63.30
28845;DHT22;15976;47.938;7.758;2023-03-13T01:41:28;13.50;62.80
28845;DHT22;15976;47.938;7.758;2023-03-13T01:43:56;13.60;62.60
28845;DHT22;15976;47.938;7.758;2023-03-13T01:46:29;13.60;62.40
28845;DHT22;15976;47.938;7.758;2023-03-13T01:52:07;13.70;61.90
28845;DHT22;15976;47.938;7.758;2023-03-13T01:54:51;13.70;61.80
28845;DHT22;15976;47.938;7.758;2023-03-13T01:57:55;13.70;61.70
28845;DHT22;15976;47.938;7.758;2023-03-13T02:00:28;13.70;62.00
28845;DHT22;15976;47.938;7.758;2023-03-13T02:02:57;13.60;62.50
28845;DHT22;15976;47.938;7.758;2023-03-13T02:05:27;13.50;62.90
28845;DHT22;15976;47.938;7.758;2023-03-13T02:08:09;13.40;63.30
28845;DHT22;15976;47.938;7.758;2023-03-13T02:10:42;13.40;63.40
28845;DHT22;15976;47.938;7.758;2023-03-13T02:13:10;13.40;63.50
28845;DHT22;15976;47.938;7.758;2023-03-13T02:15:42;13.40;63.50
28845;DHT22;15976;47.938;7.758;2023-03-13T02:18:10;13.40;63.40
28845;DHT22;15976;47.938;7.758;2023-03-13T02:20:38;13.40;63.30
28845;DHT22;15976;47.938;7.758;2023-03-13T02:23:49;13.50;63.10
28845;DHT22;15976;47.938;7.758;2023-03-13T02:26:19;13.50;62.80
28845;DHT22;15976;47.938;7.758;2023-03-13T02:28:46;13.50;62.70
28845;DHT22;15976;47.938;7.758;2023-03-13T02:31:16;13.60;62.60
28845;DHT22;15976;47.938;7.758;2023-03-13T02:33:43;13.60;62.60
28845;DHT22;15976;47.938;7.758;2023-03-13T02:36:15;13.60;62.40
28845;DHT22;15976;47.938;7.758;2023-03-13T02:38:58;13.60;62.40
28845;DHT22;15976;47.938;7.758;2023-03-13T02:41:30;13.60;63.10
28845;DHT22;15976;47.938;7.758;2023-03-13T02:43:59;13.60;62.40
28845;DHT22;15976;47.938;7.758;2023-03-13T02:46:26;13.60;62.40
28845;DHT22;15976;47.938;7.758;2023-03-13T02:48:55;13.60;62.40
28845;DHT22;15976;47.938;7.758;2023-03-13T02:51:38;13.60;62.30
28845;DHT22;15976;47.938;7.758;2023-03-13T02:54:13;13.60;62.40
28845;DHT22;15976;47.938;7.758;2023-03-13T02:56:43;13.60;62.40
28845;DHT22;15976;47.938;7.758;2023-03-13T02:59:11;13.60;62.40
28845;DHT22;15976;47.938;7.758;2023-03-13T03:01:41;13.60;62.40
28845;DHT22;15976;47.938;7.758;2023-03-13T03:04:08;13.60;62.60
28845;DHT22;15976;47.938;7.758;2023-03-13T03:06:35;13.50;62.60
28845;DHT22;15976;47.938;7.758;2023-03-13T03:09:04;13.50;62.60
28845;DHT22;15976;47.938;7.758;2023-03-13T03:11:34;13.50;62.70
28845;DHT22;15976;47.938;7.758;2023-03-13T03:14:05;13.40;62.80
28845;DHT22;15976;47.938;7.758;2023-03-13T03:16:37;13.40;62.90
28845;DHT22;15976;47.938;7.758;2023-03-13T03:19:05;13.40;63.30
28845;DHT22;15976;47.938;7.758;2023-03-13T03:21:32;13.40;63.60
28845;DHT22;15976;47.938;7.758;2023-03-13T03:24:00;13.40;64.00
28845;DHT22;15976;47.938;7.758;2023-03-13T03:26:27;13.40;64.40
28845;DHT22;15976;47.938;7.758;2023-03-13T03:28:54;13.40;64.80
28845;DHT22;15976;47.938;7.758;2023-03-13T03:31:22;13.40;65.20
28845;DHT22;15976;47.938;7.758;2023-03-13T03:33:49;13.40;65.50
28845;DHT22;15976;47.938;7.758;2023-03-13T03:36:21;13.40;65.90
28845;DHT22;15976;47.938;7.758;2023-03-13T03:38:50;13.40;66.10
28845;DHT22;15976;47.938;7.758;2023-03-13T03:41:20;13.40;66.30
28845;DHT22;15976;47.938;7.758;2023-03-13T03:43:47;13.40;66.50
28845;DHT22;15976;47.938;7.758;2023-03-13T03:46:18;13.40;66.70
28845;DHT22;15976;47.938;7.758;2023-03-13T03:48:45;13.30;66.90
28845;DHT22;15976;47.938;7.758;2023-03-13T03:51:13;13.30;67.40
28845;DHT22;15976;47.938;7.758;2023-03-13T03:53:42;13.20;68.10
28845;DHT22;15976;47.938;7.758;2023-03-13T03:56:09;13.00;69.20
28845;DHT22;15976;47.938;7.758;2023-03-13T03:58:41;12.90;70.00
28845;DHT22;15976;47.938;7.758;2023-03-13T04:01:26;12.70;70.70
28845;DHT22;15976;47.938;7.758;2023-03-13T04:03:53;12.70;71.00
28845;DHT22;15976;47.938;7.758;2023-03-13T04:06:21;12.70;71.20
28845;DHT22;15976;47.938;7.758;2023-03-13T04:08:48;12.70;71.20
28845;DHT22;15976;47.938;7.758;2023-03-13T04:11:19;12.70;71.00
28845;DHT22;15976;47.938;7.758;2023-03-13T04:13:49;12.70;70.80
28845;DHT22;15976;47.938;7.758;2023-03-13T04:16:16;12.80;70.50
28845;DHT22;15976;47.938;7.758;2023-03-13T04:18:45;12.90;70.00
28845;DHT22;15976;47.938;7.758;2023-03-13T04:21:13;13.00;69.40
28845;DHT22;15976;47.938;7.758;2023-03-13T04:23:45;13.10;69.10
28845;DHT22;15976;47.938;7.758;2023-03-13T04:26:13;13.10;68.70
28845;DHT22;15976;47.938;7.758;2023-03-13T04:28:40;13.20;68.40
28845;DHT22;15976;47.938;7.758;2023-03-13T04:31:10;13.20;68.20
28845;DHT22;15976;47.938;7.758;2023-03-13T04:33:55;13.30;68.10
28845;DHT22;15976;47.938;7.758;2023-03-13T04:36:48;13.30;67.90
28845;DHT22;15976;47.938;7.758;2023-03-13T04:39:34;13.30;67.70
28845;DHT22;15976;47.938;7.758;2023-03-13T04:42:17;13.40;67.50
28845;DHT22;15976;47.938;7.758;2023-03-13T04:45:01;13.40;67.40
28845;DHT22;15976;47.938;7.758;2023-03-13T04:47:50;13.40;67.40
28845;DHT22;15976;47.938;7.758;2023-03-13T04:50:29;13.40;67.40
28845;DHT22;15976;47.938;7.758;2023-03-13T04:53:29;13.40;67.30
28845;DHT22;15976;47.938;7.758;2023-03-13T04:56:24;13.40;67.70
28845;DHT22;15976;47.938;7.758;2023-03-13T04:59:27;13.20;69.00
28845;DHT22;15976;47.938;7.758;2023-03-13T05:02:04;12.90;70.60
28845;DHT22;15976;47.938;7.758;2023-03-13T05:04:45;12.70;72.00
28845;DHT22;15976;47.938;7.758;2023-03-13T05:07:32;12.60;72.80
28845;DHT22;15976;47.938;7.758;2023-03-13T05:10:19;12.50;73.10
28845;DHT22;15976;47.938;7.758;2023-03-13T05:13:07;12.50;73.50
28845;DHT22;15976;47.938;7.758;2023-03-13T05:15:49;12.50;73.80
28845;DHT22;15976;47.938;7.758;2023-03-13T05:18:53;12.50;73.80
28845;DHT22;15976;47.938;7.758;2023-03-13T05:21:39;12.50;73.80
28845;DHT22;15976;47.938;7.758;2023-03-13T05:24:44;12.50;73.80
28845;DHT22;15976;47.938;7.758;2023-03-13T05:27:30;12.50;73.70
28845;DHT22;15976;47.938;7.758;2023-03-13T05:30:22;12.60;73.60
28845;DHT22;15976;47.938;7.758;2023-03-13T05:33:07;12.70;73.50
28845;DHT22;15976;47.938;7.758;2023-03-13T05:36:01;12.80;73.20
28845;DHT22;15976;47.938;7.758;2023-03-13T05:38:46;12.80;72.70
28845;DHT22;15976;47.938;7.758;2023-03-13T05:41:13;12.80;72.50
28845;DHT22;15976;47.938;7.758;2023-03-13T05:44:13;12.90;72.50
28845;DHT22;15976;47.938;7.758;2023-03-13T05:47:16;12.90;72.50
28845;DHT22;15976;47.938;7.758;2023-03-13T05:50:06;12.90;72.20
28845;DHT22;15976;47.938;7.758;2023-03-13T05:52:47;12.90;71.90
28845;DHT22;15976;47.938;7.758;2023-03-13T05:55:26;13.00;71.70
28845;DHT22;15976;47.938;7.758;2023-03-13T05:58:19;13.00;71.20
28845;DHT22;15976;47.938;7.758;2023-03-13T06:01:12;13.10;71.10
28845;DHT22;15976;47.938;7.758;2023-03-13T06:03:39;13.10;71.00
28845;DHT22;15976;47.938;7.758;2023-03-13T06:06:12;13.10;70.80
28845;DHT22;15976;47.938;7.758;2023-03-13T06:08:52;13.20;70.70
28845;DHT22;15976;47.938;7.758;2023-03-13T06:11:21;13.20;70.50
28845;DHT22;15976;47.938;7.758;2023-03-13T06:13:51;13.20;70.30
28845;DHT22;15976;47.938;7.758;2023-03-13T06:16:36;13.30;70.30
28845;DHT22;15976;47.938;7.758;2023-03-13T06:19:18;13.30;70.30
28845;DHT22;15976;47.938;7.758;2023-03-13T06:21:45;13.40;70.10
28845;DHT22;15976;47.938;7.758;2023-03-13T06:24:12;13.40;70.00
28845;DHT22;15976;47.938;7.758;2023-03-13T06:26:39;13.40;69.90
28845;DHT22;15976;47.938;7.758;2023-03-13T06:29:06;13.40;69.80
28845;DHT22;15976;47.938;7.758;2023-03-13T06:31:33;13.50;69.80
28845;DHT22;15976;47.938;7.758;2023-03-13T06:34:00;13.50;69.60
28845;DHT22;15976;47.938;7.758;2023-03-13T06:36:28;13.50;69.50
28845;DHT22;15976;47.938;7.758;2023-03-13T06:38:55;13.60;69.60
28845;DHT22;15976;47.938;7.758;2023-03-13T06:41:22;13.60;69.50
28845;DHT22;15976;47.938;7.758;2023-03-13T06:43:50;13.70;69.40
28845;DHT22;15976;47.938;7.758;2023-03-13T06:46:19;13.70;69.40
28845;DHT22;15976;47.938;7.758;2023-03-13T06:48:47;13.70;69.40
28845;DHT22;15976;47.938;7.758;2023-03-13T06:51:16;13.80;69.40
28845;DHT22;15976;47.938;7.758;2023-03-13T06:53:43;13.90;69.40
28845;DHT22;15976;47.938;7.758;2023-03-13T06:56:10;13.90;69.20
28845;DHT22;15976;47.938;7.758;2023-03-13T06:58:37;13.90;69.20
28845;DHT22;15976;47.938;7.758;2023-03-13T07:01:09;14.00;69.10
28845;DHT22;15976;47.938;7.758;2023-03-13T07:03:37;14.00;69.00
28845;DHT22;15976;47.938;7.758;2023-03-13T07:06:04;14.00;68.90
28845;DHT22;15976;47.938;7.758;2023-03-13T07:08:32;14.10;68.80
28845;DHT22;15976;47.938;7.758;2023-03-13T07:11:00;14.10;68.70
28845;DHT22;15976;47.938;7.758;2023-03-13T07:13:28;14.10;68.70
28845;DHT22;15976;47.938;7.758;2023-03-13T07:15:58;14.20;68.50
28845;DHT22;15976;47.938;7.758;2023-03-13T07:18:25;14.30;68.40
28845;DHT22;15976;47.938;7.758;2023-03-13T07:20:56;14.30;68.20
28845;DHT22;15976;47.938;7.758;2023-03-13T07:23:25;14.30;68.10
28845;DHT22;15976;47.938;7.758;2023-03-13T07:28:21;14.40;68.00
28845;DHT22;15976;47.938;7.758;2023-03-13T07:30:49;14.50;68.00
28845;DHT22;15976;47.938;7.758;2023-03-13T07:33:16;14.50;67.80
28845;DHT22;15976;47.938;7.758;2023-03-13T07:35:51;14.60;67.60
28845;DHT22;15976;47.938;7.758;2023-03-13T07:38:18;14.70;67.50
28845;DHT22;15976;47.938;7.758;2023-03-13T07:40:50;14.80;67.50
28845;DHT22;15976;47.938;7.758;2023-03-13T07:43:17;14.90;67.30
28845;DHT22;15976;47.938;7.758;2023-03-13T07:46:02;15.00;67.00
28845;DHT22;15976;47.938;7.758;2023-03-13T07:48:35;15.20;66.90
28845;DHT22;15976;47.938;7.758;2023-03-13T07:51:04;15.30;66.60
28845;DHT22;15976;47.938;7.758;2023-03-13T07:53:32;15.40;66.20
28845;DHT22;15976;47.938;7.758;2023-03-13T07:56:05;15.60;65.80
28845;DHT22;15976;47.938;7.758;2023-03-13T07:58:33;15.80;65.00
28845;DHT22;15976;47.938;7.758;2023-03-13T08:01:05;16.00;64.40
28845;DHT22;15976;47.938;7.758;2023-03-13T08:03:33;16.00;64.30
28845;DHT22;15976;47.938;7.758;2023-03-13T08:06:02;16.10;64.00
28845;DHT22;15976;47.938;7.758;2023-03-13T08:08:30;16.10;64.00
28845;DHT22;15976;47.938;7.758;2023-03-13T08:11:06;16.10;63.90
28845;DHT22;15976;47.938;7.758;2023-03-13T08:13:33;16.00;64.10
28845;DHT22;15976;47.938;7.758;2023-03-13T08:18:39;16.00;64.40
28845;DHT22;15976;47.938;7.758;2023-03-13T08:21:13;16.00;65.20
28845;DHT22;15976;47.938;7.758;2023-03-13T08:23:40;16.00;64.40
28845;DHT22;15976;47.938;7.758;2023-03-13T08:26:16;16.00;64.40
28845;DHT22;15976;47.938;7.758;2023-03-13T08:28:44;16.00;64.40
28845;DHT22;15976;47.938;7.758;2023-03-13T08:31:19;16.10;64.60
28845;DHT22;15976;47.938;7.758;2023-03-13T08:33:47;16.00;64.30
28845;DHT22;15976;47.938;7.758;2023-03-13T08:36:17;16.00;64.30
28845;DHT22;15976;47.938;7.758;2023-03-13T08:38:45;16.10;64.30
28845;DHT22;15976;47.938;7.758;2023-03-13T08:41:14;16.10;64.30
28845;DHT22;15976;47.938;7.758;2023-03-13T08:43:41;16.10;64.30
28845;DHT22;15976;47.938;7.758;2023-03-13T08:46:08;16.20;64.30
28845;DHT22;15976;47.938;7.758;2023-03-13T08:48:35;16.30;64.00
28845;DHT22;15976;47.938;7.758;2023-03-13T08:53:32;16.40;64.40
28845;DHT22;15976;47.938;7.758;2023-03-13T08:55:59;16.50;63.40
28845;DHT22;15976;47.938;7.758;2023-03-13T08:58:26;16.50;63.10
28845;DHT22;15976;47.938;7.758;2023-03-13T09:00:54;16.60;63.00
28845;DHT22;15976;47.938;7.758;2023-03-13T09:03:26;16.70;62.80
28845;DHT22;15976;47.938;7.758;2023-03-13T09:05:56;16.80;62.50
28845;DHT22;15976;47.938;7.758;2023-03-13T09:08:23;16.80;62.40
28845;DHT22;15976;47.938;7.758;2023-03-13T09:10:57;17.00;62.30
28845;DHT22;15976;47.938;7.758;2023-03-13T09:13:26;17.10;62.00
28845;DHT22;15976;47.938;7.758;2023-03-13T09:16:07;17.10;61.70
28845;DHT22;15976;47.938;7.758;2023-03-13T09:18:35;17.10;61.50
28845;DHT22;15976;47.938;7.758;2023-03-13T09:21:05;17.10;61.50
28845;DHT22;15976;47.938;7.758;2023-03-13T09:23:33;17.20;61.90
28845;DHT22;15976;47.938;7.758;2023-03-13T09:26:00;17.20;61.70
28845;DHT22;15976;47.938;7.758;2023-03-13T09:28:28;17.40;61.60
28845;DHT22;15976;47.938;7.758;2023-03-13T09:30:55;17.50;61.20
28845;DHT22;15976;47.938;7.758;2023-03-13T09:33:22;17.60;60.60
28845;DHT22;15976;47.938;7.758;2023-03-13T09:35:51;17.70;60.00
28845;DHT22;15976;47.938;7.758;2023-03-13T09:38:20;17.80;59.80
28845;DHT22;15976;47.938;7.758;2023-03-13T09:40:49;17.90;59.50
28845;DHT22;15976;47.938;7.758;2023-03-13T09:43:42;18.10;59.20
28845;DHT22;15976;47.938;7.758;2023-03-13T09:48:52;18.40;58.30
28845;DHT22;15976;47.938;7.758;2023-03-13T09:51:32;18.60;58.30
28845;DHT22;15976;47.938;7.758;2023-03-13T09:54:08;18.80;58.10
28845;DHT22;15976;47.938;7.758;2023-03-13T09:57:03;19.00;57.50
28845;DHT22;15976;47.938;7.758;2023-03-13T10:02:43;19.00;56.70
28845;DHT22;15976;47.938;7.758;2023-03-13T10:05:21;18.90;56.90
28845;DHT22;15976;47.938;7.758;2023-03-13T10:07:49;18.90;57.00
28845;DHT22;15976;47.938;7.758;2023-03-13T10:10:24;19.00;57.10
28845;DHT22;15976;47.938;7.758;2023-03-13T10:12:58;19.10;56.80
28845;DHT22;15976;47.938;7.758;2023-03-13T10:18:19;19.30;56.00
28845;DHT22;15976;47.938;7.758;2023-03-13T10:20:52;19.30;56.30
28845;DHT22;15976;47.938;7.758;2023-03-13T10:23:38;19.40;56.00
28845;DHT22;15976;47.938;7.758;2023-03-13T10:26:15;19.50;55.50
28845;DHT22;15976;47.938;7.758;2023-03-13T10:28:43;19.60;55.30
28845;DHT22;15976;47.938;7.758;2023-03-13T10:31:25;19.80;55.30
28845;DHT22;15976;47.938;7.758;2023-03-13T10:34:02;20.00;55.10
28845;DHT22;15976;47.938;7.758;2023-03-13T10:36:39;20.30;54.70
28845;DHT22;15976;47.938;7.758;2023-03-13T10:39:18;20.40;54.10
28845;DHT22;15976;47.938;7.758;2023-03-13T10:41:45;20.40;53.80
28845;DHT22;15976;47.938;7.758;2023-03-13T10:44:32;20.50;53.50
28845;DHT22;15976;47.938;7.758;2023-03-13T10:47:00;20.70;52.80
28845;DHT22;15976;47.938;7.758;2023-03-13T10:49:29;20.80;52.50
28845;DHT22;15976;47.938;7.758;2023-03-13T10:52:02;20.90;52.20
28845;DHT22;15976;47.938;7.758;2023-03-13T10:54:35;21.00;51.80
28845;DHT22;15976;47.938;7.758;2023-03-13T10:59:49;21.00;51.30
28845;DHT22;15976;47.938;7.758;2023-03-13T11:04:52;21.00;51.50
28845;DHT22;15976;47.938;7.758;2023-03-13T11:10:18;20.90;50.90
28845;DHT22;15976;47.938;7.758;2023-03-13T11:12:48;20.80;51.10
28845;DHT22;15976;47.938;7.758;2023-03-13T11:15:30;20.80;51.50
28845;DHT22;15976;47.938;7.758;2023-03-13T11:20:34;20.90;51.50
28845;DHT22;15976;47.938;7.758;2023-03-13T11:23:42;20.90;51.20
28845;DHT22;15976;47.938;7.758;2023-03-13T11:26:29;20.90;51.30
28845;DHT22;15976;47.938;7.758;2023-03-13T11:31:41;21.00;51.00
28845;DHT22;15976;47.938;7.758;2023-03-13T11:34:37;21.00;51.40
28845;DHT22;15976;47.938;7.758;2023-03-13T11:37:16;21.10;51.10
28845;DHT22;15976;47.938;7.758;2023-03-13T11:40:02;21.10;50.60
28845;DHT22;15976;47.938;7.758;2023-03-13T11:57:07;21.40;49.80
28845;DHT22;15976;47.938;7.758;2023-03-13T12:02:53;21.70;49.30
28845;DHT22;15976;47.938;7.758;2023-03-13T12:05:22;21.80;49.10
28845;DHT22;15976;47.938;7.758;2023-03-13T12:07:56;22.00;49.00
28845;DHT22;15976;47.938;7.758;2023-03-13T12:10:26;22.10;48.70
28845;DHT22;15976;47.938;7.758;2023-03-13T12:13:09;22.20;48.40
28845;DHT22;15976;47.938;7.758;2023-03-13T12:15:42;22.30;48.40
28845;DHT22;15976;47.938;7.758;2023-03-13T12:18:36;22.40;48.10
28845;DHT22;15976;47.938;7.758;2023-03-13T12:21:32;22.40;47.80
28845;DHT22;15976;47.938;7.758;2023-03-13T12:26:44;22.40;47.80
28845;DHT22;15976;47.938;7.758;2023-03-13T12:40:58;22.60;47.50
28845;DHT22;15976;47.938;7.758;2023-03-13T12:43:35;22.80;47.50
28845;DHT22;15976;47.938;7.758;2023-03-13T12:57:00;23.00;46.40
28845;DHT22;15976;47.938;7.758;2023-03-13T12:59:37;23.20;46.20
28845;DHT22;15976;47.938;7.758;2023-03-13T13:02:18;23.20;45.90
28845;DHT22;15976;47.938;7.758;2023-03-13T13:04:47;23.20;44.80
28845;DHT22;15976;47.938;7.758;2023-03-13T13:12:36;23.10;45.90
28845;DHT22;15976;47.938;7.758;2023-03-13T13:17:46;23.00;45.80
28845;DHT22;15976;47.938;7.758;2023-03-13T13:25:52;23.00;46.40
28845;DHT22;15976;47.938;7.758;2023-03-13T13:28:26;22.90;46.40
28845;DHT22;15976;47.938;7.758;2023-03-13T13:30:57;23.00;46.30
28845;DHT22;15976;47.938;7.758;2023-03-13T13:38:40;24.40;45.40
28845;DHT22;15976;47.938;7.758;2023-03-13T13:46:27;28.50;39.20
28845;DHT22;15976;47.938;7.758;2023-03-13T13:51:36;27.90;39.00
28845;DHT22;15976;47.938;7.758;2023-03-13T13:56:58;28.00;38.50
28845;DHT22;15976;47.938;7.758;2023-03-13T14:08:29;25.90;40.80
28845;DHT22;15976;47.938;7.758;2023-03-13T14:10:43;26.00;41.10
28845;DHT22;15976;47.938;7.758;2023-03-13T14:13:20;26.60;40.60
28845;DHT22;15976;47.938;7.758;2023-03-13T14:15:48;26.80;40.10
28845;DHT22;15976;47.938;7.758;2023-03-13T14:18:27;26.70;39.90
28845;DHT22;15976;47.938;7.758;2023-03-13T14:21:01;26.50;39.70
28845;DHT22;15976;47.938;7.758;2023-03-13T14:25:55;28.00;38.70
28845;DHT22;15976;47.938;7.758;2023-03-13T14:28:23;29.10;37.40
28845;DHT22;15976;47.938;7.758;2023-03-13T14:30:52;29.80;36.40
28845;DHT22;15976;47.938;7.758;2023-03-13T14:33:20;30.50;35.40
28845;DHT22;15976;47.938;7.758;2023-03-13T14:35:47;30.90;34.70
28845;DHT22;15976;47.938;7.758;2023-03-13T14:38:25;30.60;33.80
28845;DHT22;15976;47.938;7.758;2023-03-13T14:40:54;30.20;34.00
28845;DHT22;15976;47.938;7.758;2023-03-13T14:43:39;29.90;34.30
28845;DHT22;15976;47.938;7.758;2023-03-13T14:46:30;29.60;34.60
28845;DHT22;15976;47.938;7.758;2023-03-13T14:49:06;30.40;34.00
28845;DHT22;15976;47.938;7.758;2023-03-13T14:51:38;31.30;32.40
28845;DHT22;15976;47.938;7.758;2023-03-13T14:54:24;32.20;31.90
28845;DHT22;15976;47.938;7.758;2023-03-13T14:59:35;33.60;29.80
28845;DHT22;15976;47.938;7.758;2023-03-13T15:02:22;33.60;28.70
28845;DHT22;15976;47.938;7.758;2023-03-13T15:05:01;33.20;27.10
28845;DHT22;15976;47.938;7.758;2023-03-13T15:10:25;31.70;28.50
28845;DHT22;15976;47.938;7.758;2023-03-13T15:12:57;31.60;29.50
28845;DHT22;15976;47.938;7.758;2023-03-13T15:15:24;32.00;29.80
28845;DHT22;15976;47.938;7.758;2023-03-13T15:17:51;32.20;28.70
28845;DHT22;15976;47.938;7.758;2023-03-13T15:20:18;31.70;29.30
28845;DHT22;15976;47.938;7.758;2023-03-13T15:22:46;31.80;29.60
28845;DHT22;15976;47.938;7.758;2023-03-13T15:25:21;31.60;29.20
28845;DHT22;15976;47.938;7.758;2023-03-13T15:27:49;30.80;29.20
28845;DHT22;15976;47.938;7.758;2023-03-13T15:30:19;29.90;29.90
28845;DHT22;15976;47.938;7.758;2023-03-13T15:32:46;29.20;30.70
28845;DHT22;15976;47.938;7.758;2023-03-13T15:37:54;29.30;31.30
28845;DHT22;15976;47.938;7.758;2023-03-13T15:40:23;29.30;31.60
28845;DHT22;15976;47.938;7.758;2023-03-13T15:42:51;29.30;30.70
28845;DHT22;15976;47.938;7.758;2023-03-13T15:45:21;29.00;30.40
28845;DHT22;15976;47.938;7.758;2023-03-13T15:47:51;28.60;30.30
28845;DHT22;15976;47.938;7.758;2023-03-13T15:50:31;28.40;30.20
28845;DHT22;15976;47.938;7.758;2023-03-13T15:55:59;27.50;30.90
28845;DHT22;15976;47.938;7.758;2023-03-13T15:58:32;26.90;31.50
28845;DHT22;15976;47.938;7.758;2023-03-13T16:01:11;26.40;32.30
28845;DHT22;15976;47.938;7.758;2023-03-13T16:04:12;26.10;33.00
28845;DHT22;15976;47.938;7.758;2023-03-13T16:06:45;26.00;32.80
28845;DHT22;15976;47.938;7.758;2023-03-13T16:09:20;26.30;32.80
28845;DHT22;15976;47.938;7.758;2023-03-13T16:11:57;27.10;32.40
28845;DHT22;15976;47.938;7.758;2023-03-13T16:14:41;27.90;31.20
28845;DHT22;15976;47.938;7.758;2023-03-13T16:17:21;28.50;29.90
28845;DHT22;15976;47.938;7.758;2023-03-13T16:19:53;28.40;29.40
28845;DHT22;15976;47.938;7.758;2023-03-13T16:22:35;27.80;29.50
28845;DHT22;15976;47.938;7.758;2023-03-13T16:28:13;26.30;31.50
28845;DHT22;15976;47.938;7.758;2023-03-13T16:30:41;26.30;31.40
28845;DHT22;15976;47.938;7.758;2023-03-13T16:33:10;26.60;31.30
28845;DHT22;15976;47.938;7.758;2023-03-13T16:35:39;26.90;30.90
28845;DHT22;15976;47.938;7.758;2023-03-13T16:38:10;27.20;30.60
28845;DHT22;15976;47.938;7.758;2023-03-13T16:40:36;27.20;30.30
28845;DHT22;15976;47.938;7.758;2023-03-13T16:43:03;27.00;30.40
28845;DHT22;15976;47.938;7.758;2023-03-13T16:45:30;26.70;30.60
28845;DHT22;15976;47.938;7.758;2023-03-13T16:47:57;26.50;30.50
28845;DHT22;15976;47.938;7.758;2023-03-13T16:50:31;26.40;30.80
28845;DHT22;15976;47.938;7.758;2023-03-13T16:52:58;26.10;31.00
28845;DHT22;15976;47.938;7.758;2023-03-13T16:55:26;25.80;31.40
28845;DHT22;15976;47.938;7.758;2023-03-13T16:57:57;25.50;31.80
28845;DHT22;15976;47.938;7.758;2023-03-13T17:00:27;25.20;32.40
28845;DHT22;15976;47.938;7.758;2023-03-13T17:02:54;24.80;32.90
28845;DHT22;15976;47.938;7.758;2023-03-13T17:05:24;24.50;33.30
28845;DHT22;15976;47.938;7.758;2023-03-13T17:07:51;24.20;33.80
28845;DHT22;15976;47.938;7.758;2023-03-13T17:10:28;24.00;34.20
28845;DHT22;15976;47.938;7.758;2023-03-13T17:12:56;23.80;34.50
28845;DHT22;15976;47.938;7.758;2023-03-13T17:15:24;23.60;34.80
28845;DHT22;15976;47.938;7.758;2023-03-13T17:17:52;23.50;35.10
28845;DHT22;15976;47.938;7.758;2023-03-13T17:20:24;23.30;35.40
28845;DHT22;15976;47.938;7.758;2023-03-13T17:22:52;23.10;35.70
28845;DHT22;15976;47.938;7.758;2023-03-13T17:29:46;22.80;36.30
28845;DHT22;15976;47.938;7.758;2023-03-13T17:32:16;22.60;36.70
28845;DHT22;15976;47.938;7.758;2023-03-13T17:34:44;22.40;37.00
28845;DHT22;15976;47.938;7.758;2023-03-13T17:37:15;22.30;37.30
28845;DHT22;15976;47.938;7.758;2023-03-13T17:39:45;22.20;37.40
28845;DHT22;15976;47.938;7.758;2023-03-13T17:42:14;22.10;37.70
28845;DHT22;15976;47.938;7.758;2023-03-13T17:44:45;22.00;38.50
28845;DHT22;15976;47.938;7.758;2023-03-13T17:47:27;22.00;38.20
28845;DHT22;15976;47.938;7.758;2023-03-13T17:50:34;21.90;38.40
28845;DHT22;15976;47.938;7.758;2023-03-13T17:53:51;21.80;38.60
28845;DHT22;15976;47.938;7.758;2023-03-13T17:56:42;21.70;38.90
28845;DHT22;15976;47.938;7.758;2023-03-13T17:59:42;21.60;39.20
28845;DHT22;15976;47.938;7.758;2023-03-13T18:02:44;21.50;39.30
28845;DHT22;15976;47.938;7.758;2023-03-13T18:05:38;21.40;39.30
28845;DHT22;15976;47.938;7.758;2023-03-13T18:08:37;21.40;39.40
28845;DHT22;15976;47.938;7.758;2023-03-13T18:11:11;21.30;39.50
28845;DHT22;15976;47.938;7.758;2023-03-13T18:13:54;21.30;39.50
28845;DHT22;15976;47.938;7.758;2023-03-13T18:16:33;21.30;39.70
28845;DHT22;15976;47.938;7.758;2023-03-13T18:19:19;21.20;39.70
28845;DHT22;15976;47.938;7.758;2023-03-13T18:21:59;21.10;39.80
28845;DHT22;15976;47.938;7.758;2023-03-13T18:24:51;21.10;39.80
28845;DHT22;15976;47.938;7.758;2023-03-13T18:27:57;21.00;39.90